• Join FlightAware (Why Join?)
  • Login
  • US Flag 
04:09PM EDT


 

Airport Tracker/Info


-or-


 

Live Flight TrackerFlight Track Log ✈ FIV630 ✈ 26-May-2012 ✈ KLAS - KSMO

Flight Track Log - Related Links

Times and Time Zones

All times are in EDT time to prevent confusion due to time zone crossing. See the FIV630 flight status page for this flight to view local times or setup timezone preferences in your user account.

Time Position Orientation Groundspeed Altitude Reporting Facility
EDT Latitude Longitude Course Direction KTS MPH feet Rate Location/Type
12:02AM 36.0769 -115.1731 205° Southwest 175 201 3,300  Level Los Angeles Center
12:03AM 36.0125 -115.2097 190° South 248 285 7,400 3,780 Climbing Los Angeles Center
12:04AM 35.9292 -115.2286 192° South 289 333 12,300 4,140 Climbing Los Angeles Center
12:05AM 35.8439 -115.2503 192° South 308 354 16,400 3,840 Climbing Los Angeles Center
12:06AM 35.7522 -115.2742 198° South 320 368 20,000 2,760 Climbing Los Angeles Center
12:07AM 35.6606 -115.3108 228° Southwest 339 390 22,000 960 Climbing Los Angeles Center
12:08AM 35.5903 -115.4061 228° Southwest 349 402 22,000  Level Los Angeles Center
12:09AM 35.5197 -115.5036 227° Southwest 370 426 22,000  Level Los Angeles Center
12:10AM 35.4556 -115.5883 228° Southwest 383 441 22,000  Level Los Angeles Center
12:11AM 35.3850 -115.6856 228° Southwest 388 447 22,000  Level Los Angeles Center
12:12AM 35.3122 -115.7853 227° Southwest 394 453 22,000  Level Los Angeles Center
12:13AM 35.2394 -115.8822 227° Southwest 394 453 22,000  Level Los Angeles Center
12:14AM 35.1686 -115.9764 226° Southwest 394 453 22,000  Level Los Angeles Center
12:15AM 35.0914 -116.0731 227° Southwest 394 453 22,000  Level Los Angeles Center
12:16AM 35.0186 -116.1694 230° Southwest 394 453 22,000  Level Los Angeles Center
12:17AM 34.9494 -116.2683 246° West 394 453 22,000  Level Los Angeles Center
12:18AM 34.9075 -116.3822 260° West 388 447 22,000  Level Los Angeles Center
12:19AM 34.8886 -116.5086 259° West 374 430 22,000  Level Los Angeles Center
12:20AM 34.8692 -116.6328 258° West 374 430 22,000  Level Los Angeles Center
12:21AM 34.8478 -116.7539 259° West 374 430 22,000  Level Los Angeles Center
12:22AM 34.8283 -116.8778 259° West 374 430 22,000  Level Los Angeles Center
12:23AM 34.8086 -117.0042 259° West 374 430 22,000  Level Los Angeles Center
12:24AM 34.7889 -117.1278 258° West 374 430 22,000  Level Los Angeles Center
12:25AM 34.7647 -117.2617 259° West 374 430 22,000 -60 Level Los Angeles Center
12:26AM 34.7447 -117.3828 258° West 374 430 21,900 -1,020 Descending Los Angeles Center
12:27AM 34.7247 -117.5011 259° West 368 423 20,000 -1,980 Descending Los Angeles Center
12:28AM 34.7044 -117.6222 257° West 368 423 18,000 -1,680 Descending Los Angeles Center
12:29AM 34.6822 -117.7356 249° West 368 423 16,700 -1,500 Descending Los Angeles Center
12:30AM 34.6494 -117.8408 248° West 352 405 15,000 -1,800 Descending Los Angeles Center
12:31AM 34.6144 -117.9461 249° West 346 398 13,200 -1,800 Descending Los Angeles Center
12:32AM 34.5817 -118.0489 249° West 341 392 11,400 -1,680 Descending Los Angeles Center
12:33AM 34.5531 -118.1414 247° West 323 372 9,900 -1,560 Descending Los Angeles Center
12:34AM 34.5267 -118.2164 243° Southwest 299 344 8,300 -960 Descending Los Angeles Center
12:35AM 34.4942 -118.2939 220° Southwest 274 315 8,000 -180 Descending Los Angeles Center
12:36AM 34.4408 -118.3478 168° South 260 299 8,000  Level Los Angeles Center
12:37AM 34.3642 -118.3281 168° South 234 269 8,000 -480 Level Los Angeles Center
12:38AM 34.2914 -118.3086 169° South 249 287 7,100 -540 Descending Los Angeles Center
12:39AM 34.2228 -118.2919 174° South 256 295 7,000 -600 Descending Los Angeles Center
12:40AM 34.1478 -118.2822 234° Southwest 256 295 6,000 -1,560 Descending Los Angeles Center
12:41AM 34.1167 -118.3333 220° Southwest 183 211 3,900 -1,620 Descending Southern California TRACON
12:42AM 34.0833 -118.3667 220° Southwest 145 167 2,700 -1,080 Descending Southern California TRACON
12:43AM 34.0500 -118.4000 239° Southwest 134 154 1,900 -780 Descending Southern California TRACON
12:44AM 34.0333 -118.4333 203° Southwest 115 132 1,300 -600 Descending Southern California TRACON
12:51AM 34.0000 -118.4500 356° North  Level FlightAware Approximate
12:52AM 34.0933 -118.4577 176° South  Level Estimated
12:53AM 34.0000 -118.4500 356° North  Level FlightAware Approximate
12:54AM 34.0933 -118.4577 356° North  Level Estimated